sensor_id;sensor_type;location;lat;lon;timestamp;temperature;humidity
19003;DHT22;9634;51.040;13.794;2022-07-10T00:02:24;15.30;99.90
19003;DHT22;9634;51.040;13.794;2022-07-10T00:07:27;15.20;99.90
19003;DHT22;9634;51.040;13.794;2022-07-10T00:12:30;15.00;99.90
19003;DHT22;9634;51.040;13.794;2022-07-10T00:17:33;15.00;99.90
19003;DHT22;9634;51.040;13.794;2022-07-10T00:22:38;14.90;99.90
19003;DHT22;9634;51.040;13.794;2022-07-10T00:27:41;14.90;99.90
19003;DHT22;9634;51.040;13.794;2022-07-10T00:32:43;14.70;99.90
19003;DHT22;9634;51.040;13.794;2022-07-10T00:37:47;14.70;99.90
19003;DHT22;9634;51.040;13.794;2022-07-10T00:42:49;14.40;99.90
19003;DHT22;9634;51.040;13.794;2022-07-10T00:47:51;14.10;99.90
19003;DHT22;9634;51.040;13.794;2022-07-10T00:52:55;14.10;99.90
19003;DHT22;9634;51.040;13.794;2022-07-10T00:57:58;14.10;99.90
19003;DHT22;9634;51.040;13.794;2022-07-10T01:03:01;14.10;99.90
19003;DHT22;9634;51.040;13.794;2022-07-10T01:08:05;14.20;99.90
19003;DHT22;9634;51.040;13.794;2022-07-10T01:13:07;14.30;99.90
19003;DHT22;9634;51.040;13.794;2022-07-10T01:18:10;14.30;99.90
19003;DHT22;9634;51.040;13.794;2022-07-10T01:23:14;14.30;99.90
19003;DHT22;9634;51.040;13.794;2022-07-10T01:28:16;14.40;99.90
19003;DHT22;9634;51.040;13.794;2022-07-10T01:33:19;14.40;99.90
19003;DHT22;9634;51.040;13.794;2022-07-10T01:38:22;14.40;99.90
19003;DHT22;9634;51.040;13.794;2022-07-10T01:43:24;14.50;99.90
19003;DHT22;9634;51.040;13.794;2022-07-10T01:48:27;14.50;99.90
19003;DHT22;9634;51.040;13.794;2022-07-10T01:53:30;14.40;99.90
19003;DHT22;9634;51.040;13.794;2022-07-10T01:58:33;14.40;99.90
19003;DHT22;9634;51.040;13.794;2022-07-10T02:03:35;14.40;99.90
19003;DHT22;9634;51.040;13.794;2022-07-10T02:08:56;14.40;99.90
19003;DHT22;9634;51.040;13.794;2022-07-10T02:13:59;14.40;99.90
19003;DHT22;9634;51.040;13.794;2022-07-10T02:19:01;14.50;99.90
19003;DHT22;9634;51.040;13.794;2022-07-10T02:24:05;14.50;99.90
19003;DHT22;9634;51.040;13.794;2022-07-10T02:29:07;14.50;99.90
19003;DHT22;9634;51.040;13.794;2022-07-10T02:34:11;14.40;99.90
19003;DHT22;9634;51.040;13.794;2022-07-10T02:39:15;14.40;99.90
19003;DHT22;9634;51.040;13.794;2022-07-10T02:44:17;14.40;99.90
19003;DHT22;9634;51.040;13.794;2022-07-10T02:49:20;14.40;99.90
19003;DHT22;9634;51.040;13.794;2022-07-10T02:54:24;14.40;99.90
19003;DHT22;9634;51.040;13.794;2022-07-10T02:59:26;14.40;99.90
19003;DHT22;9634;51.040;13.794;2022-07-10T03:04:28;14.40;99.90
19003;DHT22;9634;51.040;13.794;2022-07-10T03:09:32;14.40;99.90
19003;DHT22;9634;51.040;13.794;2022-07-10T03:14:35;14.30;99.90
19003;DHT22;9634;51.040;13.794;2022-07-10T03:19:37;14.30;99.90
19003;DHT22;9634;51.040;13.794;2022-07-10T03:24:40;14.20;99.90
19003;DHT22;9634;51.040;13.794;2022-07-10T03:29:47;14.20;99.90
19003;DHT22;9634;51.040;13.794;2022-07-10T03:34:49;14.20;99.90
19003;DHT22;9634;51.040;13.794;2022-07-10T03:39:53;14.30;99.90
19003;DHT22;9634;51.040;13.794;2022-07-10T03:44:55;14.30;99.90
19003;DHT22;9634;51.040;13.794;2022-07-10T03:49:58;14.30;99.90
19003;DHT22;9634;51.040;13.794;2022-07-10T03:55:02;14.20;99.90
19003;DHT22;9634;51.040;13.794;2022-07-10T04:00:05;14.20;99.90
19003;DHT22;9634;51.040;13.794;2022-07-10T04:05:12;14.30;99.90
19003;DHT22;9634;51.040;13.794;2022-07-10T04:10:16;14.20;99.90
19003;DHT22;9634;51.040;13.794;2022-07-10T04:15:19;14.30;99.90
19003;DHT22;9634;51.040;13.794;2022-07-10T04:20:22;14.30;99.90
19003;DHT22;9634;51.040;13.794;2022-07-10T04:25:27;14.30;99.90
19003;DHT22;9634;51.040;13.794;2022-07-10T04:30:29;14.40;99.90
19003;DHT22;9634;51.040;13.794;2022-07-10T04:35:31;14.40;99.90
19003;DHT22;9634;51.040;13.794;2022-07-10T04:40:35;14.50;99.90
19003;DHT22;9634;51.040;13.794;2022-07-10T04:45:37;14.60;99.90
19003;DHT22;9634;51.040;13.794;2022-07-10T04:50:39;14.80;99.90
19003;DHT22;9634;51.040;13.794;2022-07-10T04:55:43;14.90;99.90
19003;DHT22;9634;51.040;13.794;2022-07-10T05:00:45;15.10;99.90
19003;DHT22;9634;51.040;13.794;2022-07-10T05:05:48;15.10;99.90
19003;DHT22;9634;51.040;13.794;2022-07-10T05:10:51;15.20;99.90
19003;DHT22;9634;51.040;13.794;2022-07-10T05:15:54;15.30;99.90
19003;DHT22;9634;51.040;13.794;2022-07-10T05:20:56;15.30;99.90
19003;DHT22;9634;51.040;13.794;2022-07-10T05:26:00;15.40;99.90
19003;DHT22;9634;51.040;13.794;2022-07-10T05:31:02;15.40;99.90
19003;DHT22;9634;51.040;13.794;2022-07-10T05:36:06;15.20;99.90
19003;DHT22;9634;51.040;13.794;2022-07-10T05:41:10;15.40;99.90
19003;DHT22;9634;51.040;13.794;2022-07-10T05:46:12;15.40;99.90
19003;DHT22;9634;51.040;13.794;2022-07-10T05:51:14;15.60;99.90
19003;DHT22;9634;51.040;13.794;2022-07-10T05:56:18;15.30;99.90
19003;DHT22;9634;51.040;13.794;2022-07-10T06:01:20;15.30;99.90
19003;DHT22;9634;51.040;13.794;2022-07-10T06:06:23;15.70;99.90
19003;DHT22;9634;51.040;13.794;2022-07-10T06:11:26;15.50;99.90
19003;DHT22;9634;51.040;13.794;2022-07-10T06:16:29;15.70;99.90
19003;DHT22;9634;51.040;13.794;2022-07-10T06:21:31;15.70;99.90
19003;DHT22;9634;51.040;13.794;2022-07-10T06:26:35;15.60;99.90
19003;DHT22;9634;51.040;13.794;2022-07-10T06:31:37;15.60;99.90
19003;DHT22;9634;51.040;13.794;2022-07-10T06:36:39;16.00;99.90
19003;DHT22;9634;51.040;13.794;2022-07-10T06:41:43;16.50;99.90
19003;DHT22;9634;51.040;13.794;2022-07-10T06:46:45;16.00;99.90
19003;DHT22;9634;51.040;13.794;2022-07-10T06:52:08;16.40;99.90
19003;DHT22;9634;51.040;13.794;2022-07-10T06:57:12;16.90;99.90
19003;DHT22;9634;51.040;13.794;2022-07-10T07:02:14;17.00;99.90
19003;DHT22;9634;51.040;13.794;2022-07-10T07:07:16;16.40;99.90
19003;DHT22;9634;51.040;13.794;2022-07-10T07:12:20;16.40;99.90
19003;DHT22;9634;51.040;13.794;2022-07-10T07:17:22;16.40;99.90
19003;DHT22;9634;51.040;13.794;2022-07-10T07:22:26;16.30;99.90
19003;DHT22;9634;51.040;13.794;2022-07-10T07:27:47;16.40;99.90
19003;DHT22;9634;51.040;13.794;2022-07-10T07:32:49;16.30;99.90
19003;DHT22;9634;51.040;13.794;2022-07-10T07:37:52;16.60;99.90
19003;DHT22;9634;51.040;13.794;2022-07-10T07:42:56;16.40;99.90
19003;DHT22;9634;51.040;13.794;2022-07-10T07:47:58;16.30;99.90
19003;DHT22;9634;51.040;13.794;2022-07-10T07:53:04;16.10;99.90
19003;DHT22;9634;51.040;13.794;2022-07-10T07:58:08;16.40;99.90
19003;DHT22;9634;51.040;13.794;2022-07-10T08:03:10;16.50;99.90
19003;DHT22;9634;51.040;13.794;2022-07-10T08:08:13;17.10;99.90
19003;DHT22;9634;51.040;13.794;2022-07-10T08:13:17;18.00;99.90
19003;DHT22;9634;51.040;13.794;2022-07-10T08:18:19;18.10;99.90
19003;DHT22;9634;51.040;13.794;2022-07-10T08:23:21;18.50;99.90
19003;DHT22;9634;51.040;13.794;2022-07-10T08:28:25;18.70;99.90
19003;DHT22;9634;51.040;13.794;2022-07-10T08:33:27;18.40;99.90
19003;DHT22;9634;51.040;13.794;2022-07-10T08:38:29;18.30;99.90
19003;DHT22;9634;51.040;13.794;2022-07-10T08:43:33;18.40;99.90
19003;DHT22;9634;51.040;13.794;2022-07-10T08:48:37;17.70;99.90
19003;DHT22;9634;51.040;13.794;2022-07-10T08:53:42;17.80;99.90
19003;DHT22;9634;51.040;13.794;2022-07-10T08:58:47;18.30;99.90
19003;DHT22;9634;51.040;13.794;2022-07-10T09:03:50;17.80;99.90
19003;DHT22;9634;51.040;13.794;2022-07-10T09:09:02;16.90;99.90
19003;DHT22;9634;51.040;13.794;2022-07-10T09:14:06;16.20;99.90
19003;DHT22;9634;51.040;13.794;2022-07-10T09:19:17;16.10;99.90
19003;DHT22;9634;51.040;13.794;2022-07-10T09:24:21;17.10;99.90
19003;DHT22;9634;51.040;13.794;2022-07-10T09:29:25;18.40;99.90
19003;DHT22;9634;51.040;13.794;2022-07-10T09:34:38;17.80;99.90
19003;DHT22;9634;51.040;13.794;2022-07-10T09:40:00;18.70;99.90
19003;DHT22;9634;51.040;13.794;2022-07-10T09:45:17;20.00;99.90
19003;DHT22;9634;51.040;13.794;2022-07-10T09:50:22;18.50;99.90
19003;DHT22;9634;51.040;13.794;2022-07-10T09:55:26;17.70;99.90
19003;DHT22;9634;51.040;13.794;2022-07-10T10:00:33;18.00;99.90
19003;DHT22;9634;51.040;13.794;2022-07-10T10:05:37;18.40;99.90
19003;DHT22;9634;51.040;13.794;2022-07-10T10:10:44;19.00;99.90
19003;DHT22;9634;51.040;13.794;2022-07-10T10:15:50;19.70;99.90
19003;DHT22;9634;51.040;13.794;2022-07-10T10:20:54;20.50;98.80
19003;DHT22;9634;51.040;13.794;2022-07-10T10:25:57;21.50;82.50
19003;DHT22;9634;51.040;13.794;2022-07-10T10:31:01;21.20;74.60
19003;DHT22;9634;51.040;13.794;2022-07-10T10:36:04;20.70;77.70
19003;DHT22;9634;51.040;13.794;2022-07-10T10:41:22;19.60;81.80
19003;DHT22;9634;51.040;13.794;2022-07-10T10:46:26;19.10;90.70
19003;DHT22;9634;51.040;13.794;2022-07-10T10:51:56;19.40;89.10
19003;DHT22;9634;51.040;13.794;2022-07-10T10:57:15;19.10;89.50
19003;DHT22;9634;51.040;13.794;2022-07-10T11:02:25;18.90;91.00
19003;DHT22;9634;51.040;13.794;2022-07-10T11:07:52;19.50;90.50
19003;DHT22;9634;51.040;13.794;2022-07-10T11:13:01;20.70;86.50
19003;DHT22;9634;51.040;13.794;2022-07-10T11:18:06;19.80;82.50
19003;DHT22;9634;51.040;13.794;2022-07-10T11:28:51;18.50;91.30
19003;DHT22;9634;51.040;13.794;2022-07-10T11:33:56;19.00;93.10
19003;DHT22;9634;51.040;13.794;2022-07-10T11:38:59;19.50;92.20
19003;DHT22;9634;51.040;13.794;2022-07-10T11:44:03;19.90;90.10
19003;DHT22;9634;51.040;13.794;2022-07-10T11:49:07;20.20;82.20
19003;DHT22;9634;51.040;13.794;2022-07-10T11:54:11;22.80;71.90
19003;DHT22;9634;51.040;13.794;2022-07-10T11:59:14;25.50;57.50
19003;DHT22;9634;51.040;13.794;2022-07-10T12:04:19;25.10;51.80
19003;DHT22;9634;51.040;13.794;2022-07-10T12:09:25;22.50;58.70
19003;DHT22;9634;51.040;13.794;2022-07-10T12:14:27;20.30;66.70
19003;DHT22;9634;51.040;13.794;2022-07-10T12:19:37;18.90;77.10
19003;DHT22;9634;51.040;13.794;2022-07-10T12:24:41;18.50;85.20
19003;DHT22;9634;51.040;13.794;2022-07-10T12:29:43;17.90;91.10
19003;DHT22;9634;51.040;13.794;2022-07-10T12:35:03;17.70;93.60
19003;DHT22;9634;51.040;13.794;2022-07-10T12:40:09;18.00;91.30
19003;DHT22;9634;51.040;13.794;2022-07-10T12:45:13;18.00;91.20
19003;DHT22;9634;51.040;13.794;2022-07-10T12:50:17;18.40;91.10
19003;DHT22;9634;51.040;13.794;2022-07-10T12:55:21;19.00;88.40
19003;DHT22;9634;51.040;13.794;2022-07-10T13:00:24;19.40;88.10
19003;DHT22;9634;51.040;13.794;2022-07-10T13:05:31;19.70;83.50
19003;DHT22;9634;51.040;13.794;2022-07-10T13:10:34;20.00;81.40
19003;DHT22;9634;51.040;13.794;2022-07-10T13:15:37;21.80;78.40
19003;DHT22;9634;51.040;13.794;2022-07-10T13:20:43;23.00;67.60
19003;DHT22;9634;51.040;13.794;2022-07-10T13:25:45;24.80;58.00
19003;DHT22;9634;51.040;13.794;2022-07-10T13:30:48;23.80;57.90
19003;DHT22;9634;51.040;13.794;2022-07-10T13:35:52;23.80;57.10
19003;DHT22;9634;51.040;13.794;2022-07-10T13:40:55;24.90;52.30
19003;DHT22;9634;51.040;13.794;2022-07-10T13:45:59;23.90;53.10
19003;DHT22;9634;51.040;13.794;2022-07-10T13:51:03;23.00;55.40
19003;DHT22;9634;51.040;13.794;2022-07-10T13:56:06;22.20;57.30
19003;DHT22;9634;51.040;13.794;2022-07-10T14:01:09;21.70;58.50
19003;DHT22;9634;51.040;13.794;2022-07-10T14:06:12;21.20;59.70
19003;DHT22;9634;51.040;13.794;2022-07-10T14:11:15;20.70;61.10
19003;DHT22;9634;51.040;13.794;2022-07-10T14:16:18;19.80;64.40
19003;DHT22;9634;51.040;13.794;2022-07-10T14:21:22;19.40;66.00
19003;DHT22;9634;51.040;13.794;2022-07-10T14:26:28;20.00;65.80
19003;DHT22;9634;51.040;13.794;2022-07-10T14:31:30;21.40;62.00
19003;DHT22;9634;51.040;13.794;2022-07-10T14:36:34;21.40;61.60
19003;DHT22;9634;51.040;13.794;2022-07-10T14:41:36;21.90;61.20
19003;DHT22;9634;51.040;13.794;2022-07-10T14:46:38;20.90;63.70
19003;DHT22;9634;51.040;13.794;2022-07-10T14:51:42;20.70;64.50
19003;DHT22;9634;51.040;13.794;2022-07-10T14:56:44;20.40;65.00
19003;DHT22;9634;51.040;13.794;2022-07-10T15:01:47;19.90;68.80
19003;DHT22;9634;51.040;13.794;2022-07-10T15:06:50;19.60;69.60
19003;DHT22;9634;51.040;13.794;2022-07-10T15:11:53;19.80;69.70
19003;DHT22;9634;51.040;13.794;2022-07-10T15:16:55;20.00;67.90
19003;DHT22;9634;51.040;13.794;2022-07-10T15:21:59;22.50;59.30
19003;DHT22;9634;51.040;13.794;2022-07-10T15:27:02;21.80;61.00
19003;DHT22;9634;51.040;13.794;2022-07-10T15:32:05;21.20;62.50
19003;DHT22;9634;51.040;13.794;2022-07-10T15:37:09;20.40;64.70
19003;DHT22;9634;51.040;13.794;2022-07-10T15:42:12;20.00;67.70
19003;DHT22;9634;51.040;13.794;2022-07-10T15:47:14;22.90;60.30
19003;DHT22;9634;51.040;13.794;2022-07-10T15:52:19;23.90;55.80
19003;DHT22;9634;51.040;13.794;2022-07-10T15:57:21;22.20;58.00
19003;DHT22;9634;51.040;13.794;2022-07-10T16:02:23;20.80;61.40
19003;DHT22;9634;51.040;13.794;2022-07-10T16:07:27;21.50;60.90
19003;DHT22;9634;51.040;13.794;2022-07-10T16:12:29;21.60;59.00
19003;DHT22;9634;51.040;13.794;2022-07-10T16:17:32;20.90;62.20
19003;DHT22;9634;51.040;13.794;2022-07-10T16:22:35;20.10;63.90
19003;DHT22;9634;51.040;13.794;2022-07-10T16:27:37;19.80;66.80
19003;DHT22;9634;51.040;13.794;2022-07-10T16:32:40;19.70;67.90
19003;DHT22;9634;51.040;13.794;2022-07-10T16:37:44;19.60;67.80
19003;DHT22;9634;51.040;13.794;2022-07-10T16:42:46;19.50;68.90
19003;DHT22;9634;51.040;13.794;2022-07-10T16:47:49;19.70;69.70
19003;DHT22;9634;51.040;13.794;2022-07-10T16:52:53;20.20;67.00
19003;DHT22;9634;51.040;13.794;2022-07-10T16:57:55;21.00;64.00
19003;DHT22;9634;51.040;13.794;2022-07-10T17:02:58;21.60;61.90
19003;DHT22;9634;51.040;13.794;2022-07-10T17:08:01;21.70;60.80
19003;DHT22;9634;51.040;13.794;2022-07-10T17:13:04;21.60;59.80
19003;DHT22;9634;51.040;13.794;2022-07-10T17:18:06;21.10;59.50
19003;DHT22;9634;51.040;13.794;2022-07-10T17:23:10;21.20;60.90
19003;DHT22;9634;51.040;13.794;2022-07-10T17:28:13;21.00;59.30
19003;DHT22;9634;51.040;13.794;2022-07-10T17:33:15;20.90;60.20
19003;DHT22;9634;51.040;13.794;2022-07-10T17:38:19;20.80;60.30
19003;DHT22;9634;51.040;13.794;2022-07-10T17:43:24;20.50;62.30
19003;DHT22;9634;51.040;13.794;2022-07-10T17:48:26;20.30;63.00
19003;DHT22;9634;51.040;13.794;2022-07-10T17:53:30;20.20;63.40
19003;DHT22;9634;51.040;13.794;2022-07-10T17:58:33;19.90;64.70
19003;DHT22;9634;51.040;13.794;2022-07-10T18:03:35;19.60;65.80
19003;DHT22;9634;51.040;13.794;2022-07-10T18:08:39;19.40;67.40
19003;DHT22;9634;51.040;13.794;2022-07-10T18:13:45;19.40;68.70
19003;DHT22;9634;51.040;13.794;2022-07-10T18:18:50;19.30;69.00
19003;DHT22;9634;51.040;13.794;2022-07-10T18:23:53;19.30;70.00
19003;DHT22;9634;51.040;13.794;2022-07-10T18:29:00;19.20;68.70
19003;DHT22;9634;51.040;13.794;2022-07-10T18:34:02;19.20;69.90
19003;DHT22;9634;51.040;13.794;2022-07-10T18:39:24;19.20;70.20
19003;DHT22;9634;51.040;13.794;2022-07-10T18:44:26;19.00;70.70
19003;DHT22;9634;51.040;13.794;2022-07-10T18:49:29;18.80;72.40
19003;DHT22;9634;51.040;13.794;2022-07-10T18:54:32;18.60;74.00
19003;DHT22;9634;51.040;13.794;2022-07-10T18:59:35;18.50;76.70
19003;DHT22;9634;51.040;13.794;2022-07-10T19:04:38;18.40;77.60
19003;DHT22;9634;51.040;13.794;2022-07-10T19:09:41;18.30;78.80
19003;DHT22;9634;51.040;13.794;2022-07-10T19:14:44;18.10;81.30
19003;DHT22;9634;51.040;13.794;2022-07-10T19:19:46;18.00;83.00
19003;DHT22;9634;51.040;13.794;2022-07-10T19:24:50;18.00;84.70
19003;DHT22;9634;51.040;13.794;2022-07-10T19:29:52;18.00;86.60
19003;DHT22;9634;51.040;13.794;2022-07-10T19:34:54;17.70;89.50
19003;DHT22;9634;51.040;13.794;2022-07-10T19:39:58;17.70;90.70
19003;DHT22;9634;51.040;13.794;2022-07-10T19:45:01;17.70;91.60
19003;DHT22;9634;51.040;13.794;2022-07-10T19:50:04;17.70;92.50
19003;DHT22;9634;51.040;13.794;2022-07-10T19:55:09;17.70;93.60
19003;DHT22;9634;51.040;13.794;2022-07-10T20:00:11;17.60;94.90
19003;DHT22;9634;51.040;13.794;2022-07-10T20:05:14;17.70;94.90
19003;DHT22;9634;51.040;13.794;2022-07-10T20:10:17;17.70;94.70
19003;DHT22;9634;51.040;13.794;2022-07-10T20:15:20;17.70;95.20
19003;DHT22;9634;51.040;13.794;2022-07-10T20:20:22;17.70;94.80
19003;DHT22;9634;51.040;13.794;2022-07-10T20:25:26;17.70;94.60
19003;DHT22;9634;51.040;13.794;2022-07-10T20:30:28;17.70;94.90
19003;DHT22;9634;51.040;13.794;2022-07-10T20:35:31;17.70;95.10
19003;DHT22;9634;51.040;13.794;2022-07-10T20:40:35;17.70;95.30
19003;DHT22;9634;51.040;13.794;2022-07-10T20:45:37;17.60;95.60
19003;DHT22;9634;51.040;13.794;2022-07-10T20:50:39;17.60;96.20
19003;DHT22;9634;51.040;13.794;2022-07-10T20:55:43;17.60;97.10
19003;DHT22;9634;51.040;13.794;2022-07-10T21:00:46;17.60;97.80
19003;DHT22;9634;51.040;13.794;2022-07-10T21:05:48;17.50;98.80
19003;DHT22;9634;51.040;13.794;2022-07-10T21:10:52;17.50;99.80
19003;DHT22;9634;51.040;13.794;2022-07-10T21:15:54;17.40;99.90
19003;DHT22;9634;51.040;13.794;2022-07-10T21:20:56;17.40;99.90
19003;DHT22;9634;51.040;13.794;2022-07-10T21:26:00;17.30;99.90
19003;DHT22;9634;51.040;13.794;2022-07-10T21:31:02;17.30;99.90
19003;DHT22;9634;51.040;13.794;2022-07-10T21:36:06;17.20;99.90
19003;DHT22;9634;51.040;13.794;2022-07-10T21:41:10;17.20;99.90
19003;DHT22;9634;51.040;13.794;2022-07-10T21:46:12;17.10;99.90
19003;DHT22;9634;51.040;13.794;2022-07-10T21:51:14;17.10;99.90
19003;DHT22;9634;51.040;13.794;2022-07-10T21:56:18;17.00;99.90
19003;DHT22;9634;51.040;13.794;2022-07-10T22:01:21;16.90;99.90
19003;DHT22;9634;51.040;13.794;2022-07-10T22:06:24;16.90;99.90
19003;DHT22;9634;51.040;13.794;2022-07-10T22:11:28;16.80;99.90
19003;DHT22;9634;51.040;13.794;2022-07-10T22:16:32;16.80;99.90
19003;DHT22;9634;51.040;13.794;2022-07-10T22:21:37;16.80;99.90
19003;DHT22;9634;51.040;13.794;2022-07-10T22:26:40;16.60;99.90
19003;DHT22;9634;51.040;13.794;2022-07-10T22:31:43;16.60;99.90
19003;DHT22;9634;51.040;13.794;2022-07-10T22:36:45;16.50;99.90
19003;DHT22;9634;51.040;13.794;2022-07-10T22:41:49;16.50;99.90
19003;DHT22;9634;51.040;13.794;2022-07-10T22:46:51;16.50;99.90
19003;DHT22;9634;51.040;13.794;2022-07-10T22:51:53;16.50;99.90
19003;DHT22;9634;51.040;13.794;2022-07-10T22:56:58;16.50;99.90
19003;DHT22;9634;51.040;13.794;2022-07-10T23:02:01;16.50;99.90
19003;DHT22;9634;51.040;13.794;2022-07-10T23:07:03;16.40;99.90
19003;DHT22;9634;51.040;13.794;2022-07-10T23:12:08;16.40;99.90
19003;DHT22;9634;51.040;13.794;2022-07-10T23:17:10;16.40;99.90
19003;DHT22;9634;51.040;13.794;2022-07-10T23:22:12;16.30;99.90
19003;DHT22;9634;51.040;13.794;2022-07-10T23:27:16;16.20;99.90
19003;DHT22;9634;51.040;13.794;2022-07-10T23:32:18;16.10;99.90
19003;DHT22;9634;51.040;13.794;2022-07-10T23:37:21;16.10;99.90
19003;DHT22;9634;51.040;13.794;2022-07-10T23:42:25;16.00;99.90
19003;DHT22;9634;51.040;13.794;2022-07-10T23:47:27;15.90;99.90
19003;DHT22;9634;51.040;13.794;2022-07-10T23:52:30;15.80;99.90
19003;DHT22;9634;51.040;13.794;2022-07-10T23:57:35;15.80;99.90
